createdAt,value
2023-02-09T00:00:08.872Z,102510.41
2023-02-09T00:01:21.087Z,102530.69
2023-02-09T00:01:54.793Z,102517.44
2023-02-09T00:02:42.117Z,102514.72
2023-02-09T00:03:22.138Z,102512.94
2023-02-09T00:04:03.188Z,102490.03
2023-02-09T00:04:43.082Z,102490.84
2023-02-09T00:05:23.142Z,102494.28
2023-02-09T00:06:07.074Z,102532.38
2023-02-09T00:06:47.142Z,102504.84
2023-02-09T00:07:27.084Z,102503.03
2023-02-09T00:08:08.135Z,102524.19
2023-02-09T00:08:49.154Z,102518.91
2023-02-09T00:09:29.132Z,102506.59
2023-02-09T00:10:10.071Z,102500.53
2023-02-09T00:10:50.136Z,102519.06
2023-02-09T00:12:06.091Z,102520.81
2023-02-09T00:13:05.846Z,102524.38
2023-02-09T00:13:46.074Z,102501.34
2023-02-09T00:14:28.096Z,102518.00
2023-02-09T00:15:02.212Z,102513.69
2023-02-09T00:15:37.288Z,102497.78
2023-02-09T00:16:18.184Z,102515.44
2023-02-09T00:16:52.212Z,102500.53
2023-02-09T00:17:35.907Z,102517.28
2023-02-09T00:18:16.066Z,102504.91
2023-02-09T00:18:50.149Z,102509.28
2023-02-09T00:19:23.915Z,102488.06
2023-02-09T00:20:04.077Z,102510.06
2023-02-09T00:20:38.123Z,102483.53
2023-02-09T00:21:12.046Z,102508.31
2023-02-09T00:21:52.061Z,102496.84
2023-02-09T00:22:26.151Z,102494.22
2023-02-09T00:22:59.733Z,102494.22
2023-02-09T00:23:44.075Z,102488.94
2023-02-09T00:24:18.139Z,102493.28
2023-02-09T00:24:52.804Z,102493.22
2023-02-09T00:25:33.098Z,102484.44
2023-02-09T00:26:14.122Z,102503.84
2023-02-09T00:26:48.113Z,102498.50
2023-02-09T00:27:28.079Z,102488.75
2023-02-09T00:28:02.220Z,102486.97
2023-02-09T00:28:36.169Z,102480.81
2023-02-09T00:29:17.053Z,102497.59
2023-02-09T00:29:51.135Z,102494.09
2023-02-09T00:30:24.756Z,102486.94
2023-02-09T00:31:05.137Z,102474.59
2023-02-09T00:31:39.186Z,102495.81
2023-02-09T00:32:12.830Z,102480.78
2023-02-09T00:32:53.074Z,102495.84
2023-02-09T00:33:27.139Z,102453.53
2023-02-09T00:34:01.468Z,102480.03
2023-02-09T00:34:41.075Z,102484.47
2023-02-09T00:35:15.114Z,102490.59
2023-02-09T00:35:48.816Z,102462.31
2023-02-09T00:36:29.123Z,102494.06
2023-02-09T00:37:03.119Z,102487.84
2023-02-09T00:37:36.921Z,102492.31
2023-02-09T00:38:19.080Z,102480.84
2023-02-09T00:38:53.139Z,102470.25
2023-02-09T00:39:26.811Z,102493.16
2023-02-09T00:40:07.038Z,102501.22
2023-02-09T00:40:41.101Z,102480.00
2023-02-09T00:41:16.285Z,102493.13
2023-02-09T00:42:14.071Z,102465.88
2023-02-09T00:42:48.086Z,102490.56
2023-02-09T00:43:21.842Z,102472.06
2023-02-09T00:44:02.114Z,102485.31
2023-02-09T00:44:36.120Z,102502.00
2023-02-09T00:45:10.261Z,102499.41
2023-02-09T00:45:50.058Z,102494.94
2023-02-09T00:46:24.097Z,102483.50
2023-02-09T00:46:57.754Z,102467.69
2023-02-09T00:47:38.048Z,102499.44
2023-02-09T00:48:12.240Z,102494.13
2023-02-09T00:48:45.740Z,102492.31
2023-02-09T00:49:27.052Z,102494.09
2023-02-09T00:50:01.103Z,102488.81
2023-02-09T00:50:34.809Z,102506.66
2023-02-09T00:51:15.054Z,102496.00
2023-02-09T00:51:49.134Z,102495.13
2023-02-09T00:52:22.734Z,102503.94
2023-02-09T00:53:03.084Z,102503.03
2023-02-09T00:53:37.093Z,102491.56
2023-02-09T00:54:10.731Z,102498.63
2023-02-09T00:54:52.040Z,102504.78
2023-02-09T00:55:26.116Z,102485.38
2023-02-09T00:55:59.982Z,102488.00
2023-02-09T00:56:40.046Z,102512.78
2023-02-09T00:57:14.109Z,102486.31
2023-02-09T00:57:48.723Z,102488.09
2023-02-09T00:58:29.045Z,102490.75
2023-02-09T00:59:03.103Z,102501.38
2023-02-09T00:59:36.998Z,102506.72
2023-02-09T01:00:20.014Z,102507.59
2023-02-09T01:00:56.094Z,102478.50
2023-02-09T01:01:29.834Z,102499.69
2023-02-09T01:02:11.042Z,102504.97
2023-02-09T01:02:45.102Z,102487.28
2023-02-09T01:03:18.724Z,102502.31
2023-02-09T01:03:59.035Z,102489.97
2023-02-09T01:04:33.141Z,102485.44
2023-02-09T01:05:07.369Z,102498.72
2023-02-09T01:05:49.044Z,102497.78
2023-02-09T01:06:23.118Z,102467.72
2023-02-09T01:06:56.750Z,102470.41
2023-02-09T01:07:37.030Z,102503.03
2023-02-09T01:08:11.073Z,102483.53
2023-02-09T01:08:44.694Z,102480.84
2023-02-09T01:09:25.083Z,102482.66
2023-02-09T01:10:00.012Z,102496.78
2023-02-09T01:10:33.859Z,102458.84
2023-02-09T01:11:17.021Z,102494.13
2023-02-09T01:11:51.045Z,102500.34
2023-02-09T01:12:24.699Z,102477.38
2023-02-09T01:13:04.989Z,102485.38
2023-02-09T01:13:39.054Z,102490.66
2023-02-09T01:14:12.733Z,102476.50
2023-02-09T01:14:54.033Z,102472.03
2023-02-09T01:15:28.150Z,102476.44
2023-02-09T01:16:13.845Z,102487.03
2023-02-09T01:16:54.076Z,102478.13
2023-02-09T01:17:28.067Z,102486.13
2023-02-09T01:18:01.744Z,102488.81
2023-02-09T01:18:43.010Z,102478.19
2023-02-09T01:19:19.073Z,102480.84
2023-02-09T01:20:01.252Z,102475.59
2023-02-09T01:20:41.090Z,102486.16
2023-02-09T01:21:26.981Z,102478.19
2023-02-09T01:22:08.855Z,102477.31
2023-02-09T01:22:49.009Z,102469.38
2023-02-09T01:23:30.071Z,102460.53
2023-02-09T01:24:10.017Z,102462.28
2023-02-09T01:24:50.083Z,102462.22
2023-02-09T01:25:30.022Z,102466.63
2023-02-09T01:26:16.082Z,102486.88
2023-02-09T01:26:55.964Z,102464.75
2023-02-09T01:27:37.130Z,102462.97
2023-02-09T01:28:17.012Z,102450.63
2023-02-09T01:29:00.069Z,102479.75
2023-02-09T01:29:46.992Z,102459.44
2023-02-09T01:30:21.048Z,102462.06
2023-02-09T01:31:01.073Z,102444.28
2023-02-09T01:31:42.165Z,102465.47
2023-02-09T01:32:23.000Z,102458.38
2023-02-09T01:33:03.124Z,102461.13
2023-02-09T01:33:43.033Z,102450.47
2023-02-09T01:34:25.032Z,102455.00
2023-02-09T01:35:04.995Z,102454.09
2023-02-09T01:35:45.036Z,102464.72
2023-02-09T01:36:26.009Z,102471.66
2023-02-09T01:37:06.049Z,102445.06
2023-02-09T01:37:45.972Z,102446.84
2023-02-09T01:38:26.270Z,102453.91
2023-02-09T01:39:08.976Z,102459.16
2023-02-09T01:39:49.049Z,102449.38
2023-02-09T01:40:29.988Z,102445.88
2023-02-09T01:41:10.023Z,102430.84
2023-02-09T01:41:51.021Z,102451.16
2023-02-09T01:42:31.047Z,102455.53
2023-02-09T01:43:10.968Z,102451.16
2023-02-09T01:44:11.041Z,102458.19
2023-02-09T01:44:51.971Z,102456.38
2023-02-09T01:45:50.868Z,102436.13
2023-02-09T01:46:35.079Z,102451.91
2023-02-09T01:47:25.967Z,102435.09
2023-02-09T01:48:10.060Z,102442.28
2023-02-09T01:49:05.017Z,102435.19
2023-02-09T01:49:39.149Z,102424.59
2023-02-09T01:50:27.004Z,102420.16
2023-02-09T01:51:06.036Z,102443.03
2023-02-09T01:52:09.981Z,102430.66
2023-02-09T01:52:50.976Z,102438.56
2023-02-09T01:53:45.950Z,102429.78
2023-02-09T01:54:47.996Z,102438.66
2023-02-09T01:55:44.994Z,102430.66
2023-02-09T01:56:42.954Z,102433.25
2023-02-09T01:57:49.972Z,102438.50
2023-02-09T01:58:31.972Z,102441.94
2023-02-09T01:59:12.021Z,102438.47
2023-02-09T01:59:56.981Z,102440.19
2023-02-09T02:00:37.019Z,102421.59
2023-02-09T02:01:18.020Z,102423.41
2023-02-09T02:01:59.027Z,102428.69
2023-02-09T02:02:40.056Z,102420.78
2023-02-09T02:03:32.000Z,102405.88
2023-02-09T02:04:06.003Z,102411.38
2023-02-09T02:04:52.955Z,102423.66
2023-02-09T02:05:26.998Z,102411.22
2023-02-09T02:06:19.944Z,102426.16
2023-02-09T02:06:55.021Z,102415.50
2023-02-09T02:07:52.982Z,102422.53
2023-02-09T02:08:53.021Z,102424.31
2023-02-09T02:09:46.969Z,102402.25
2023-02-09T02:10:40.951Z,102401.28
2023-02-09T02:11:36.938Z,102403.13
2023-02-09T02:12:31.928Z,102414.56
2023-02-09T02:13:25.927Z,102416.31
2023-02-09T02:14:13.018Z,102404.88
2023-02-09T02:14:47.052Z,102417.16
2023-02-09T02:15:40.963Z,102420.69
2023-02-09T02:17:04.005Z,102422.53
2023-02-09T02:18:14.911Z,102404.00
2023-02-09T02:19:45.981Z,102409.22
2023-02-09T02:20:50.943Z,102408.44
2023-02-09T02:22:40.944Z,102418.25
2023-02-09T02:23:49.948Z,102382.22
2023-02-09T02:25:13.947Z,102404.28
2023-02-09T02:26:52.921Z,102405.31
2023-02-09T02:28:06.009Z,102401.75
2023-02-09T02:29:49.942Z,102368.19
2023-02-09T02:31:01.046Z,102392.97
2023-02-09T02:31:53.069Z,102398.28
2023-02-09T02:33:26.896Z,102400.97
2023-02-09T02:34:32.008Z,102386.88
2023-02-09T02:35:42.911Z,102362.94
2023-02-09T02:36:47.956Z,102392.94
2023-02-09T02:38:02.930Z,102378.81
2023-02-09T02:39:16.895Z,102391.97
2023-02-09T02:40:22.904Z,102391.16
2023-02-09T02:41:59.949Z,102380.66
2023-02-09T02:43:21.899Z,102356.84
2023-02-09T02:44:20.919Z,102356.81
2023-02-09T02:45:26.891Z,102381.44
2023-02-09T02:46:40.032Z,102373.44
2023-02-09T02:47:22.945Z,102374.31
2023-02-09T02:48:24.004Z,102374.31
2023-02-09T02:49:39.909Z,102354.81
2023-02-09T02:50:25.079Z,102373.34
2023-02-09T02:51:16.944Z,102369.88
2023-02-09T02:51:59.968Z,102348.78
2023-02-09T02:52:39.946Z,102375.19
2023-02-09T02:53:21.976Z,102361.03
2023-02-09T02:54:09.928Z,102364.50
2023-02-09T02:55:08.999Z,102367.94
2023-02-09T02:55:51.902Z,102352.91
2023-02-09T02:56:56.961Z,102366.94
2023-02-09T02:57:39.904Z,102360.59
2023-02-09T02:58:20.940Z,102337.69
2023-02-09T02:59:04.878Z,102350.88
2023-02-09T02:59:57.999Z,102346.47
2023-02-09T03:00:47.918Z,102352.66
2023-02-09T03:01:30.996Z,102342.09
2023-02-09T03:02:23.909Z,102345.63
2023-02-09T03:03:11.945Z,102337.88
2023-02-09T03:03:46.948Z,102349.38
2023-02-09T03:04:34.908Z,102352.06
2023-02-09T03:05:10.077Z,102355.63
2023-02-09T03:05:57.894Z,102348.59
2023-02-09T03:06:31.968Z,102336.25
2023-02-09T03:07:18.916Z,102336.28
2023-02-09T03:07:53.116Z,102333.59
2023-02-09T03:08:32.902Z,102319.53
2023-02-09T03:09:13.013Z,102352.97
2023-02-09T03:10:03.319Z,102349.41
2023-02-09T03:10:48.108Z,102341.44
2023-02-09T03:11:33.879Z,102348.50
2023-02-09T03:12:48.900Z,102336.09
2023-02-09T03:14:08.911Z,102332.53
2023-02-09T03:15:34.900Z,102350.97
2023-02-09T03:17:05.901Z,102350.06
2023-02-09T03:18:33.900Z,102319.38
2023-02-09T03:19:56.993Z,102344.81
2023-02-09T03:21:02.885Z,102341.34
2023-02-09T03:22:18.854Z,102322.84
2023-02-09T03:23:15.856Z,102318.47
2023-02-09T03:24:44.872Z,102337.94
2023-02-09T03:25:48.884Z,102323.94
2023-02-09T03:26:38.977Z,102338.16
2023-02-09T03:27:37.869Z,102331.97
2023-02-09T03:28:25.001Z,102310.81
2023-02-09T03:29:05.866Z,102327.63
2023-02-09T03:29:40.235Z,102313.50
2023-02-09T03:30:28.896Z,102306.47
2023-02-09T03:31:10.926Z,102331.16
2023-02-09T03:31:52.044Z,102329.50
2023-02-09T03:32:34.881Z,102312.66
2023-02-09T03:33:32.994Z,102316.25
2023-02-09T03:34:13.862Z,102314.59
2023-02-09T03:34:54.971Z,102324.34
2023-02-09T03:35:46.869Z,102307.53
2023-02-09T03:36:34.900Z,102309.22
2023-02-09T03:37:08.551Z,102298.75
2023-02-09T03:37:55.861Z,102317.16
2023-02-09T03:38:29.864Z,102297.75
2023-02-09T03:39:17.855Z,102309.97
2023-02-09T03:39:51.554Z,102297.78
2023-02-09T03:40:39.859Z,102295.19
2023-02-09T03:41:13.611Z,102313.75
2023-02-09T03:41:54.893Z,102292.63
2023-02-09T03:42:28.907Z,102288.22
2023-02-09T03:43:02.536Z,102312.00
2023-02-09T03:44:01.857Z,102309.31
2023-02-09T03:44:35.871Z,102296.19
2023-02-09T03:45:09.663Z,102289.16
2023-02-09T03:45:49.855Z,102290.09
2023-02-09T03:46:23.942Z,102306.97
2023-02-09T03:47:10.878Z,102320.19
2023-02-09T03:47:50.912Z,102306.06
2023-02-09T03:48:31.863Z,102303.56
2023-02-09T03:49:14.778Z,102300.81
2023-02-09T03:49:54.843Z,102278.72
2023-02-09T03:50:34.927Z,102299.78
2023-02-09T03:51:14.827Z,102281.41
2023-02-09T03:51:55.903Z,102298.16
2023-02-09T03:52:39.866Z,102305.16
2023-02-09T03:53:20.003Z,102297.13
2023-02-09T03:53:59.819Z,102270.72
2023-02-09T03:54:40.928Z,102302.41
2023-02-09T03:55:21.009Z,102296.28
2023-02-09T03:56:00.902Z,102292.69
2023-02-09T03:56:43.810Z,102278.63
2023-02-09T03:57:23.904Z,102283.91
2023-02-09T03:58:03.830Z,102271.50
2023-02-09T03:58:44.898Z,102294.53
2023-02-09T03:59:24.837Z,102286.69
2023-02-09T04:00:04.886Z,102288.50
2023-02-09T04:00:45.277Z,102286.63
2023-02-09T04:01:25.899Z,102283.13
2023-02-09T04:02:05.829Z,102276.03
2023-02-09T04:02:45.918Z,102261.94
2023-02-09T04:03:25.844Z,102287.41
2023-02-09T04:04:09.857Z,102274.28
2023-02-09T04:04:49.839Z,102288.34
2023-02-09T04:05:29.891Z,102277.03
2023-02-09T04:06:10.839Z,102291.16
2023-02-09T04:06:51.925Z,102280.59
2023-02-09T04:07:31.820Z,102293.00
2023-02-09T04:08:11.864Z,102273.53
2023-02-09T04:08:53.822Z,102284.97
2023-02-09T04:09:34.996Z,102262.94
2023-02-09T04:10:15.830Z,102296.41
2023-02-09T04:10:56.060Z,102276.03
2023-02-09T04:11:35.840Z,102276.28
2023-02-09T04:12:16.063Z,102266.56
2023-02-09T04:12:56.820Z,102278.84
2023-02-09T04:13:36.870Z,102289.47
2023-02-09T04:14:16.818Z,102285.06
2023-02-09T04:14:56.845Z,102273.63
2023-02-09T04:15:36.806Z,102282.34
2023-02-09T04:16:18.226Z,102263.88
2023-02-09T04:16:52.470Z,102278.03
2023-02-09T04:17:33.813Z,102248.91
2023-02-09T04:18:07.879Z,102257.69
2023-02-09T04:18:41.550Z,102260.38
2023-02-09T04:19:22.811Z,102246.22
2023-02-09T04:19:56.905Z,102275.28
2023-02-09T04:20:30.492Z,102247.00
2023-02-09T04:21:11.908Z,102248.09
2023-02-09T04:21:45.869Z,102247.97
2023-02-09T04:22:19.487Z,102261.09
2023-02-09T04:22:59.791Z,102248.72
2023-02-09T04:23:33.886Z,102262.97
2023-02-09T04:24:08.189Z,102256.78
2023-02-09T04:24:47.865Z,102254.91
2023-02-09T04:25:22.021Z,102243.50
2023-02-09T04:25:55.504Z,102248.00
2023-02-09T04:26:35.802Z,102263.03
2023-02-09T04:27:09.849Z,102251.47
2023-02-09T04:27:43.514Z,102239.97
2023-02-09T04:28:23.830Z,102229.34
2023-02-09T04:28:57.850Z,102248.78
2023-02-09T04:29:32.533Z,102235.63
2023-02-09T04:30:13.797Z,102218.84
2023-02-09T04:30:48.115Z,102217.13
2023-02-09T04:31:22.670Z,102239.13
2023-02-09T04:32:02.868Z,102223.28
2023-02-09T04:32:36.916Z,102224.09
2023-02-09T04:33:13.158Z,102209.22
2023-02-09T04:33:53.800Z,102213.47
2023-02-09T04:34:27.855Z,102208.16
2023-02-09T04:35:01.475Z,102224.09
2023-02-09T04:35:41.820Z,102227.69
2023-02-09T04:36:16.868Z,102240.03
2023-02-09T04:36:51.269Z,102237.25
2023-02-09T04:37:30.808Z,102222.28
2023-02-09T04:38:04.871Z,102208.22
2023-02-09T04:38:38.667Z,102239.09
2023-02-09T04:39:18.794Z,102224.16
2023-02-09T04:39:52.845Z,102224.94
2023-02-09T04:40:26.473Z,102210.03
2023-02-09T04:41:08.815Z,102235.59
2023-02-09T04:41:42.881Z,102204.72
2023-02-09T04:42:17.472Z,102203.81
2023-02-09T04:42:57.758Z,102204.72
2023-02-09T04:43:31.834Z,102236.53
2023-02-09T04:44:05.565Z,102238.28
2023-02-09T04:44:45.786Z,102221.53
2023-02-09T04:45:19.872Z,102214.53
2023-02-09T04:45:54.275Z,102233.09
2023-02-09T04:46:34.783Z,102206.53
2023-02-09T04:47:08.836Z,102207.41
2023-02-09T04:47:55.768Z,102232.13
2023-02-09T04:48:31.891Z,102223.16
2023-02-09T04:49:18.775Z,102221.44
2023-02-09T04:49:52.894Z,102231.94
2023-02-09T04:50:40.809Z,102238.28
2023-02-09T04:51:14.886Z,102234.66
2023-02-09T04:51:54.818Z,102204.59
2023-02-09T04:52:34.830Z,102225.59
2023-02-09T04:53:15.805Z,102211.59
2023-02-09T04:53:55.841Z,102231.88
2023-02-09T04:54:36.766Z,102206.28
2023-02-09T04:55:16.823Z,102225.81
2023-02-09T04:55:58.747Z,102215.97
2023-02-09T04:56:39.017Z,102209.09
2023-02-09T04:57:37.837Z,102211.72
2023-02-09T04:58:39.611Z,102224.06
2023-02-09T04:59:38.790Z,102217.03
2023-02-09T05:00:19.832Z,102208.06
2023-02-09T05:01:02.811Z,102222.22
2023-02-09T05:01:42.842Z,102213.53
2023-02-09T05:02:23.749Z,102208.16
2023-02-09T05:03:03.799Z,102193.25
2023-02-09T05:03:37.927Z,102194.91
2023-02-09T05:04:24.789Z,102222.28
2023-02-09T05:04:58.834Z,102204.69
2023-02-09T05:05:47.774Z,102200.38
2023-02-09T05:06:21.825Z,102198.53
2023-02-09T05:07:08.771Z,102218.84
2023-02-09T05:07:42.813Z,102218.91
2023-02-09T05:08:22.766Z,102190.72
2023-02-09T05:09:02.972Z,102199.41
2023-02-09T05:09:42.747Z,102197.66
2023-02-09T05:10:23.802Z,102189.69
2023-02-09T05:11:04.791Z,102213.41
2023-02-09T05:11:44.872Z,102208.03
2023-02-09T05:12:24.765Z,102203.78
2023-02-09T05:13:04.820Z,102192.28
2023-02-09T05:13:45.775Z,102207.16
2023-02-09T05:14:25.811Z,102182.53
2023-02-09T05:15:05.740Z,102200.19
2023-02-09T05:15:46.798Z,102208.06
2023-02-09T05:16:26.795Z,102203.03
2023-02-09T05:17:06.861Z,102181.78
2023-02-09T05:17:46.765Z,102180.97
2023-02-09T05:18:26.839Z,102203.91
2023-02-09T05:19:06.787Z,102195.03
2023-02-09T05:19:46.798Z,102199.28
2023-02-09T05:20:27.738Z,102194.94
2023-02-09T05:21:07.775Z,102168.47
2023-02-09T05:21:47.734Z,102188.69
2023-02-09T05:22:27.799Z,102185.41
2023-02-09T05:23:08.752Z,102170.44
2023-02-09T05:23:48.843Z,102195.97
2023-02-09T05:24:28.751Z,102189.84
2023-02-09T05:25:08.796Z,102197.78
2023-02-09T05:25:48.748Z,102195.16
2023-02-09T05:26:28.846Z,102175.72
2023-02-09T05:27:08.736Z,102193.28
2023-02-09T05:27:48.798Z,102190.72
2023-02-09T05:28:30.748Z,102185.53
2023-02-09T05:29:10.834Z,102176.63
2023-02-09T05:29:50.799Z,102184.56
2023-02-09T05:30:31.223Z,102179.13
2023-02-09T05:31:11.754Z,102180.91
2023-02-09T05:31:51.807Z,102150.88
2023-02-09T05:32:31.724Z,102151.69
2023-02-09T05:33:11.802Z,102156.00
2023-02-09T05:33:51.737Z,102140.31
2023-02-09T05:34:31.800Z,102176.38
2023-02-09T05:35:12.741Z,102172.91
2023-02-09T05:35:52.808Z,102166.81
2023-02-09T05:36:33.718Z,102178.19
2023-02-09T05:37:13.780Z,102138.66
2023-02-09T05:37:54.712Z,102173.00
2023-02-09T05:38:34.764Z,102166.00
2023-02-09T05:39:14.710Z,102174.84
2023-02-09T05:39:54.836Z,102150.19
2023-02-09T05:40:34.729Z,102148.38
2023-02-09T05:41:36.582Z,102163.34
2023-02-09T05:42:22.721Z,102150.97
2023-02-09T05:43:03.376Z,102144.94
2023-02-09T05:43:44.712Z,102141.38
2023-02-09T05:44:24.760Z,102140.63
2023-02-09T05:45:05.708Z,102162.59
2023-02-09T05:45:52.803Z,102152.00
2023-02-09T05:46:46.711Z,102162.47
2023-02-09T05:47:40.691Z,102173.97
2023-02-09T05:48:34.685Z,102153.63
2023-02-09T05:49:28.708Z,102162.41
2023-02-09T05:50:22.901Z,102141.44
2023-02-09T05:51:09.725Z,102154.56
2023-02-09T05:51:43.760Z,102136.88
2023-02-09T05:52:30.733Z,102167.69
2023-02-09T05:53:06.756Z,102145.75
2023-02-09T05:53:53.751Z,102174.09
2023-02-09T05:54:27.748Z,102168.63
2023-02-09T05:55:14.684Z,102156.16
2023-02-09T05:55:48.763Z,102164.97
2023-02-09T05:56:29.724Z,102158.75
2023-02-09T05:57:10.801Z,102160.59
2023-02-09T05:57:50.700Z,102143.84
2023-02-09T05:58:30.744Z,102158.06
2023-02-09T05:59:11.676Z,102165.88
2023-02-09T05:59:51.746Z,102143.06
2023-02-09T06:00:33.687Z,102158.03
2023-02-09T06:01:13.733Z,102136.81
2023-02-09T06:01:53.713Z,102164.91
2023-02-09T06:02:33.877Z,102141.06
2023-02-09T06:03:14.743Z,102137.44
2023-02-09T06:03:54.848Z,102162.97
2023-02-09T06:04:35.702Z,102166.50
2023-02-09T06:05:15.806Z,102149.75
2023-02-09T06:05:55.666Z,102148.94
2023-02-09T06:06:35.766Z,102166.44
2023-02-09T06:07:15.693Z,102156.75
2023-02-09T06:07:55.807Z,102173.44
2023-02-09T06:08:36.723Z,102168.22
2023-02-09T06:09:16.834Z,102174.47
2023-02-09T06:09:56.714Z,102178.03
2023-02-09T06:10:36.846Z,102162.09
2023-02-09T06:11:16.843Z,102167.34
2023-02-09T06:11:56.796Z,102173.47
2023-02-09T06:12:37.711Z,102178.81
2023-02-09T06:13:17.730Z,102176.16
2023-02-09T06:13:57.675Z,102184.06
2023-02-09T06:14:37.766Z,102182.38
2023-02-09T06:15:18.712Z,102175.19
2023-02-09T06:15:58.791Z,102172.44
2023-02-09T06:16:39.734Z,102175.94
2023-02-09T06:17:19.784Z,102179.47
2023-02-09T06:17:59.724Z,102178.50
2023-02-09T06:18:39.805Z,102145.94
2023-02-09T06:19:23.643Z,102151.25
2023-02-09T06:20:03.747Z,102137.16
2023-02-09T06:20:45.026Z,102164.34
2023-02-09T06:21:25.742Z,102178.47
2023-02-09T06:22:05.914Z,102160.03
2023-02-09T06:22:45.733Z,102168.91
2023-02-09T06:23:25.684Z,102150.41
2023-02-09T06:24:05.728Z,102166.44
2023-02-09T06:24:46.690Z,102170.88
2023-02-09T06:25:26.732Z,102155.84
2023-02-09T06:26:06.686Z,102166.31
2023-02-09T06:26:48.130Z,102162.78
2023-02-09T06:27:27.666Z,102151.25
2023-02-09T06:28:08.804Z,102155.59
2023-02-09T06:28:50.708Z,102153.75
2023-02-09T06:29:44.665Z,102142.31
2023-02-09T06:30:38.683Z,102172.19
2023-02-09T06:31:32.776Z,102141.38
2023-02-09T06:32:26.669Z,102155.47
2023-02-09T06:33:23.652Z,102162.50
2023-02-09T06:34:12.698Z,102157.13
2023-02-09T06:34:46.748Z,102171.16
2023-02-09T06:35:33.663Z,102174.69
2023-02-09T06:36:07.724Z,102164.13
2023-02-09T06:36:54.671Z,102159.78
2023-02-09T06:37:28.729Z,102168.88
2023-02-09T06:38:16.623Z,102187.28
2023-02-09T06:38:50.742Z,102166.00
2023-02-09T06:39:37.707Z,102179.13
2023-02-09T06:40:11.688Z,102181.84
2023-02-09T06:40:58.694Z,102174.75
2023-02-09T06:41:32.718Z,102194.97
2023-02-09T06:42:20.080Z,102180.00
2023-02-09T06:42:53.697Z,102187.03
2023-02-09T06:43:40.640Z,102191.41
2023-02-09T06:44:14.704Z,102144.72
2023-02-09T06:45:05.692Z,102186.06
2023-02-09T06:45:39.705Z,102184.25
2023-02-09T06:46:26.670Z,102189.38
2023-02-09T06:47:00.879Z,102189.31
2023-02-09T06:47:53.656Z,102187.53
2023-02-09T06:48:27.947Z,102197.25
2023-02-09T06:49:14.624Z,102178.63
2023-02-09T06:49:48.729Z,102182.09
2023-02-09T06:50:31.667Z,102177.69
2023-02-09T06:51:19.692Z,102184.78
2023-02-09T06:51:59.647Z,102185.56
2023-02-09T06:52:39.710Z,102174.13
2023-02-09T06:53:19.639Z,102196.22
2023-02-09T06:54:00.729Z,102174.22
2023-02-09T06:54:40.625Z,102190.94
2023-02-09T06:55:21.736Z,102175.97
2023-02-09T06:56:07.663Z,102168.09
2023-02-09T06:56:41.308Z,102183.91
2023-02-09T06:57:28.640Z,102184.78
2023-02-09T06:58:02.339Z,102175.16
2023-02-09T06:58:51.625Z,102173.41
2023-02-09T06:59:25.529Z,102178.75
2023-02-09T07:00:12.613Z,102187.59
2023-02-09T07:00:46.665Z,102192.03
2023-02-09T07:01:26.669Z,102189.28
2023-02-09T07:02:00.726Z,102180.38
2023-02-09T07:02:34.983Z,102169.78
2023-02-09T07:03:15.636Z,102184.88
2023-02-09T07:03:50.704Z,102179.53
2023-02-09T07:04:24.321Z,102169.88
2023-02-09T07:05:04.638Z,102171.63
2023-02-09T07:05:38.656Z,102168.19
2023-02-09T07:06:18.795Z,102168.16
2023-02-09T07:06:58.654Z,102174.44
2023-02-09T07:07:32.729Z,102178.81
2023-02-09T07:08:07.339Z,102171.72
2023-02-09T07:08:48.620Z,102182.25
2023-02-09T07:09:22.729Z,102165.47
2023-02-09T07:09:57.365Z,102184.00
2023-02-09T07:10:37.614Z,102161.13
2023-02-09T07:11:13.683Z,102182.25
2023-02-09T07:11:47.337Z,102173.41
2023-02-09T07:12:27.654Z,102161.91
2023-02-09T07:13:03.684Z,102175.16
2023-02-09T07:13:37.507Z,102173.50
2023-02-09T07:14:18.632Z,102156.69
2023-02-09T07:14:52.704Z,102139.16
2023-02-09T07:15:26.292Z,102178.75
2023-02-09T07:16:08.707Z,102173.41
2023-02-09T07:16:42.684Z,102170.81
2023-02-09T07:17:16.298Z,102161.06
2023-02-09T07:17:56.618Z,102175.16
2023-02-09T07:18:31.736Z,102173.44
2023-02-09T07:19:05.325Z,102152.38
2023-02-09T07:19:45.594Z,102150.59
2023-02-09T07:20:19.739Z,102144.72
2023-02-09T07:21:04.641Z,102150.75
2023-02-09T07:21:44.637Z,102166.66
2023-02-09T07:22:18.747Z,102166.66
2023-02-09T07:22:52.311Z,102175.59
2023-02-09T07:23:33.683Z,102177.25
2023-02-09T07:24:07.663Z,102163.13
2023-02-09T07:24:41.285Z,102161.47
2023-02-09T07:25:21.608Z,102159.75
2023-02-09T07:25:55.684Z,102180.00
2023-02-09T07:26:30.325Z,102176.41
2023-02-09T07:27:12.596Z,102169.44
2023-02-09T07:27:50.771Z,102161.56
2023-02-09T07:28:24.369Z,102170.38
2023-02-09T07:29:04.631Z,102153.84
2023-02-09T07:29:39.683Z,102165.22
2023-02-09T07:30:15.175Z,102159.06
2023-02-09T07:31:01.746Z,102176.63
2023-02-09T07:31:35.851Z,102174.03
2023-02-09T07:32:09.414Z,102161.56
2023-02-09T07:32:49.565Z,102167.75
2023-02-09T07:33:23.692Z,102152.75
2023-02-09T07:33:58.434Z,102155.41
2023-02-09T07:34:39.662Z,102168.56
2023-02-09T07:35:13.622Z,102166.78
2023-02-09T07:35:48.663Z,102144.75
2023-02-09T07:36:29.599Z,102147.38
2023-02-09T07:37:03.647Z,102149.13
2023-02-09T07:37:37.272Z,102160.56
2023-02-09T07:38:18.583Z,102156.16
2023-02-09T07:38:52.775Z,102163.16
2023-02-09T07:39:27.399Z,102149.81
2023-02-09T07:40:07.597Z,102150.63
2023-02-09T07:40:46.824Z,102148.00
2023-02-09T07:41:27.771Z,102149.03
2023-02-09T07:42:08.565Z,102158.66
2023-02-09T07:42:42.690Z,102149.03
2023-02-09T07:43:16.367Z,102163.06
2023-02-09T07:43:56.589Z,102167.41
2023-02-09T07:44:31.688Z,102148.91
2023-02-09T07:45:05.678Z,102162.97
2023-02-09T07:45:46.961Z,102155.03
2023-02-09T07:46:25.408Z,102162.13
2023-02-09T07:46:59.276Z,102153.28
2023-02-09T07:47:41.612Z,102163.91
2023-02-09T07:48:17.697Z,102166.47
2023-02-09T07:48:51.422Z,102159.50
2023-02-09T07:49:31.583Z,102124.28
2023-02-09T07:50:05.834Z,102153.28
2023-02-09T07:50:39.774Z,102143.47
2023-02-09T07:51:26.564Z,102152.13
2023-02-09T07:52:00.595Z,102157.44
2023-02-09T07:52:34.273Z,102154.16
2023-02-09T07:53:14.565Z,102144.56
2023-02-09T07:53:48.625Z,102156.88
2023-02-09T07:54:22.357Z,102164.75
2023-02-09T07:55:02.552Z,102132.16
2023-02-09T07:55:36.671Z,102143.66
2023-02-09T07:56:10.279Z,102133.94
2023-02-09T07:56:50.558Z,102136.47
2023-02-09T07:57:24.612Z,102141.72
2023-02-09T07:57:58.382Z,102162.78
2023-02-09T07:58:39.587Z,102141.59
2023-02-09T07:59:14.634Z,102139.78
2023-02-09T07:59:48.253Z,102164.28
2023-02-09T08:00:29.579Z,102144.88
2023-02-09T08:01:14.681Z,102161.53
2023-02-09T08:01:48.273Z,102167.63
2023-02-09T08:02:39.589Z,102154.38
2023-02-09T08:03:13.620Z,102155.22